Flight Number: EUR3078 Duration: 11:00
Departure: Madrid / Barajas (LEMD) at 07:00 Distance: 3442 Nm
Arrival: San Juan / Luis Munoz (TJSJ) at 18:00 Equipment: B777

Weather Information
Madrid / Barajas, Spain (LEMD) 40-27N 003-33W 582M Sep 21, 2017 - 10:00 AM EDT / 2017.09.21 1400 UTC
Wind: from the SW (220 degrees) at 7 MPH (6 KT) (direction variable):0
Visibility: greater than 7 mile(s):0 Temperature: 84 F (29 C) Dew Point: 41 F (5 C) Relative Humidity: 21% Pressure (altimeter): 30.00 in. Hg (1016 hPa)
ob: LEMD 211400Z 22006KT 130V280 CAVOK 29/05 Q1016 NOSIG cycle: 14
Sunrise: 06:04 Sunset: 18:09 (UTC)

San Juan, Luis Munoz Marin International Airport, PR, United States (TJSJ) 18-27N 066-00W Sep 20, 2017 - 05:35 AM EDT / 2017.09.20 0935 UTC
Visibility: 1/2 mile(s):0
Sky conditions: overcast Weather: light rain; fog Precipitation last hour: 0.40 inches Temperature: 78.1 F (25.6 C) Dew Point: 77.0 F (25.0 C) Relative Humidity: 96% Pressure (altimeter): 29.14 in. Hg (986 hPa) Pressure tendency: falling rapidly
ob: TJSJ 200935Z AUTO 1/2SM -RA FG BKN009 OVC016 26/25 A2914 RMK AO2 PK WND 02079/0919 PRESFR P0040 T02560250 TSNO cycle: 9
Sunrise: 10:15 Sunset: 22:18 (UTC)

TAF:2017/09/21 12:39 TAF TJSJ 211135Z 2112/2212 16015G25KT 5SM -RA VCTS SCT015CB BKN030 OVC080 FM220200 14012G22KT 4SM -RA VCTS SCT015CB OVC040 AMD NOT SKED

This route has never been flown.

Route map